Salem, OR (97301)

4:30 AM PST on January 23, 2017 (GMT -0800)
Center & Cordon NE | | Change Station

Elev 210 ft 44.94 °N, 122.96 °W | Updated 5 seconds ago

Partly Cloudy
Partly Cloudy
30.9 °F
Feels Like 31 °F
N
0.0
Wind Variable Wind from South
Gusts 0.0 mph

Today
High -- | Low -- °F
--% Chance of Precip.
Yesterday
High -- | Low -- °F
Precip. -- in
Pressure 29.63 in
Visibility 10.0 miles
Clouds Few 6000 ft
Windchill 31 °F
Dew Point 29 °F
Humidity 93%
Rainfall 0.00 in
Snow Depth Not available.
7:40 AM 5:07 PM
Waning Crescent, 19% visible
METAR KSLE 231156Z AUTO 00000KT 10SM FEW060 01/M01 A2963 RMK AO2 SLP033 70005 T00111006 10056 20006 53015
Pressure 29.63 in
Visibility 10.0 miles
Clouds Few 6000 ft
Windchill 31 °F
Dew Point 29 °F
Humidity 93%
Rainfall 0.00 in
Snow Depth Not available.
7:40 AM 5:07 PM
Waning Crescent, 19% visible
METAR KSLE 231156Z AUTO 00000KT 10SM FEW060 01/M01 A2963 RMK AO2 SLP033 70005 T00111006 10056 20006 53015

Get Your Daily Forecast Email!

Thanks for signing up!

Be on the lookout for a verification email in your inbox.

You'll start receiving the daily forecast at 8 AM.

×

10-Day Weather Forecast

Almanac

Astronomy

Jan. 23, 2017 Rise Set
Actual Time
Civil Twilight
Nautical Twilight
Astronomical Twilight
Moon
Length of Visible Light
Length of Day
Tomorrow will be .
, % of the Moon is Illuminated

Today's Extremes

State Highs State Lows

Community

WunderPhotos

Upload Photos

1,962,540 photos uploaded!

WunderBlog® & News

Nearby

Air Quality

  Air Quality AQ Index Pollutant
Not available.

Snow Depth

Station Depth Elevation

Earthquake Activity

City Distance Mag. Time & Date
Minimum magnitude displayed is 2.5.

Coastal Water Temperatures

Place Temperature

Stations

Nearby Weather Stations

Station Location Temp. Windchill Dew Point Humidity Wind Precip. Elev Updated Type
                   

Watches & Warnings

Small Craft for Winds Advisory, Small Craft for Hazardous Seas Advisory
Issued: 2:25 AM PST Jan. 23, 2017 – National Weather Service

... Small Craft Advisory for winds remains in effect until 2 PM
PST this afternoon...
... Small Craft Advisory for hazardous seas remains in effect
until 4 am PST Tuesday...

* winds... south to southeast 20 to 25 kt with gusts to 30 kt.

* Seas... 15 to 17 ft... decreasing Monday night.

Precautionary/preparedness actions...

A Small Craft Advisory for wind means that wind speeds of 21 to
33 knots are expected. Inexperienced mariners... especially those
operating smaller vessels should avoid navigating in these
conditions.

A Small Craft Advisory for hazardous seas means that waves are
expected to be hazardous to small craft. Mariners should avoid
shoaling areas. Long period swell can sharpen into large breaking
waves in shoaling areas. It is not unusual for waves to break
much farther from shoaling areas than is normally experienced.
Remember... breaking waves can easily capsize even larger vessels.